Time;durP1;ratioP1;P1;durP2;ratioP2;P2;SDS_P1;SDS_P2;PMS_P1;PMS_P2;Temp;Humidity;BMP_temperature;BMP_pressure;BME280_temperature;BME280_humidity;BME280_pressure;Samples;Min_cycle;Max_cycle;Signal;HPM_P1;HPM_P2
2021/03/21 00:00:15;;;;;;;8.25;4.43;;;2.60;1.00;;;;;;4940755;29;20154;-76
2021/03/21 00:02:43;;;;;;;8.73;4.22;;;2.50;1.00;;;;;;4937136;29;20048;-75
2021/03/21 00:05:11;;;;;;;5.65;4.07;;;2.50;1.00;;;;;;4933819;29;20076;-74
2021/03/21 00:07:38;;;;;;;9.55;4.60;;;2.50;1.00;;;;;;4940079;29;20051;-75
2021/03/21 00:10:06;;;;;;;7.35;4.25;;;2.50;1.00;;;;;;4938968;29;20049;-76
2021/03/21 00:12:33;;;;;;;7.93;4.80;;;2.40;1.00;;;;;;4939595;29;20051;-75
2021/03/21 00:15:00;;;;;;;9.55;4.78;;;2.40;1.00;;;;;;4944793;29;20043;-76
2021/03/21 00:17:27;;;;;;;8.18;4.32;;;2.50;1.00;;;;;;4939963;29;20086;-75
2021/03/21 00:19:55;;;;;;;6.82;3.95;;;2.50;1.00;;;;;;4938440;29;21546;-75
2021/03/21 00:22:22;;;;;;;5.75;3.88;;;2.50;1.00;;;;;;4939952;29;20433;-75
2021/03/21 00:24:49;;;;;;;7.85;4.00;;;2.50;1.00;;;;;;4946693;28;20581;-74
2021/03/21 00:27:17;;;;;;;6.32;3.85;;;2.50;1.00;;;;;;4949859;29;20055;-74
2021/03/21 00:29:44;;;;;;;4.80;3.42;;;2.50;1.00;;;;;;4947645;29;20055;-75
2021/03/21 00:32:11;;;;;;;6.93;3.88;;;2.60;1.00;;;;;;4948294;29;20085;-77
2021/03/21 00:34:38;;;;;;;6.45;3.70;;;2.50;1.00;;;;;;4956168;29;20052;-76
2021/03/21 00:37:07;;;;;;;6.05;3.45;;;2.60;1.00;;;;;;4948727;29;20052;-77
2021/03/21 00:39:34;;;;;;;8.38;3.83;;;2.60;1.00;;;;;;4944651;29;20051;-76
2021/03/21 00:42:02;;;;;;;6.53;3.78;;;2.50;1.00;;;;;;4953881;29;20060;-76
2021/03/21 00:44:30;;;;;;;8.35;4.05;;;2.60;1.00;;;;;;4954532;28;20130;-75
2021/03/21 00:46:57;;;;;;;7.53;3.85;;;2.60;1.00;;;;;;4943617;29;20103;-75
2021/03/21 00:49:24;;;;;;;6.93;3.55;;;2.60;1.00;;;;;;4945981;29;20055;-75
2021/03/21 00:51:51;;;;;;;8.13;3.83;;;2.60;1.00;;;;;;4948115;29;20051;-76
2021/03/21 00:54:20;;;;;;;6.00;3.70;;;2.60;1.00;;;;;;4948070;29;20153;-76
2021/03/21 00:56:48;;;;;;;6.38;3.72;;;2.60;1.00;;;;;;4942452;29;20043;-74
2021/03/21 00:59:15;;;;;;;6.68;3.58;;;2.60;1.00;;;;;;4941454;29;20079;-74
2021/03/21 01:01:42;;;;;;;5.93;3.67;;;2.60;1.00;;;;;;4933803;29;21457;-74
2021/03/21 01:04:09;;;;;;;6.22;3.75;;;2.50;1.00;;;;;;4943269;29;20153;-74
2021/03/21 01:06:41;;;;;;;6.88;4.35;;;2.60;1.00;;;;;;4944254;29;20229;-75
2021/03/21 01:09:12;;;;;;;6.68;4.03;;;2.50;1.00;;;;;;4943971;29;20494;-75
2021/03/21 01:11:41;;;;;;;6.60;3.63;;;2.50;1.00;;;;;;4939463;29;20150;-73
2021/03/21 01:14:09;;;;;;;6.70;3.75;;;2.50;1.00;;;;;;4942771;29;20044;-75
2021/03/21 01:16:39;;;;;;;6.63;3.80;;;2.60;1.00;;;;;;4944377;29;20058;-75
2021/03/21 01:19:11;;;;;;;6.60;3.80;;;2.60;1.00;;;;;;4940874;29;20093;-73
2021/03/21 01:21:44;;;;;;;5.88;3.42;;;2.60;1.00;;;;;;4940272;29;20055;-73
2021/03/21 01:24:12;;;;;;;5.57;3.60;;;2.60;1.00;;;;;;4944057;29;20048;-73
2021/03/21 01:26:41;;;;;;;8.52;3.78;;;2.60;1.00;;;;;;4942999;29;20413;-74
2021/03/21 01:29:08;;;;;;;7.18;3.85;;;2.60;1.00;;;;;;4940165;29;20390;-74
2021/03/21 01:31:36;;;;;;;7.32;4.05;;;2.50;1.00;;;;;;4936054;29;20056;-75
2021/03/21 01:34:03;;;;;;;7.10;4.35;;;2.50;1.00;;;;;;4941335;28;20047;-75
2021/03/21 01:36:33;;;;;;;7.57;4.20;;;2.50;1.00;;;;;;4945231;29;20073;-75
2021/03/21 01:39:05;;;;;;;7.55;4.53;;;2.60;1.00;;;;;;4945082;29;20047;-75
2021/03/21 01:41:34;;;;;;;6.70;4.00;;;2.50;1.00;;;;;;4938558;29;20079;-74
2021/03/21 01:44:05;;;;;;;8.00;4.38;;;2.50;1.00;;;;;;4946062;28;20130;-75
2021/03/21 01:46:49;;;;;;;8.82;4.20;;;2.50;1.00;;;;;;4943603;29;20154;-75
2021/03/21 01:49:21;;;;;;;8.95;4.45;;;2.50;1.00;;;;;;4952309;29;20047;-76
2021/03/21 01:51:51;;;;;;;6.22;4.15;;;2.50;1.00;;;;;;4943081;29;20494;-75
2021/03/21 01:54:21;;;;;;;6.30;3.88;;;2.50;1.00;;;;;;4936074;29;20130;-75
2021/03/21 01:56:48;;;;;;;10.20;4.45;;;2.50;1.00;;;;;;4948419;29;20051;-75
2021/03/21 01:59:20;;;;;;;7.35;4.07;;;2.50;1.00;;;;;;4951118;28;20055;-79
2021/03/21 02:01:47;;;;;;;5.55;3.17;;;2.50;1.00;;;;;;4946411;29;20062;-75
2021/03/21 02:04:16;;;;;;;7.95;4.00;;;2.60;1.00;;;;;;4946949;29;20054;-73
2021/03/21 02:06:56;;;;;;;7.75;3.97;;;2.50;1.00;;;;;;4940880;29;20048;-75
2021/03/21 02:09:27;;;;;;;7.03;4.07;;;2.60;1.00;;;;;;4942454;29;20055;-73
2021/03/21 02:12:11;;;;;;;6.63;3.88;;;2.60;1.00;;;;;;4931414;29;20051;-76
2021/03/21 02:14:46;;;;;;;7.85;4.15;;;2.60;1.00;;;;;;4941443;29;20075;-75
2021/03/21 02:17:19;;;;;;;8.55;4.10;;;2.50;1.00;;;;;;4943680;29;20090;-75
2021/03/21 02:20:09;;;;;;;6.55;3.90;;;2.60;1.00;;;;;;4942614;29;20081;-76
2021/03/21 02:22:40;;;;;;;6.35;3.88;;;2.60;1.00;;;;;;4940933;29;20055;-77
2021/03/21 02:25:19;;;;;;;8.70;4.43;;;2.60;1.00;;;;;;4938272;29;20103;-74
2021/03/21 02:28:14;;;;;;;7.88;4.28;;;2.50;1.00;;;;;;4944261;29;20056;-74
2021/03/21 02:30:44;;;;;;;8.00;3.92;;;2.60;1.00;;;;;;4938990;29;20086;-75
2021/03/21 02:33:16;;;;;;;7.47;3.78;;;2.40;1.00;;;;;;4944452;29;20053;-76
2021/03/21 02:35:49;;;;;;;6.45;4.05;;;2.50;1.00;;;;;;4946297;29;20053;-75
2021/03/21 02:38:24;;;;;;;6.82;3.83;;;2.50;1.00;;;;;;4941001;29;20530;-74
2021/03/21 02:40:56;;;;;;;7.35;3.63;;;2.60;1.00;;;;;;4935042;29;20048;-74
2021/03/21 02:43:30;;;;;;;5.95;3.78;;;2.60;1.00;;;;;;4945335;29;20494;-75
2021/03/21 02:46:02;;;;;;;7.80;3.93;;;2.60;1.00;;;;;;4942034;29;20039;-74
2021/03/21 02:48:32;;;;;;;6.07;3.92;;;2.50;1.00;;;;;;4943081;28;20146;-75
2021/03/21 02:51:04;;;;;;;7.07;3.45;;;2.50;1.00;;;;;;4935913;29;20047;-74
2021/03/21 02:53:37;;;;;;;7.43;3.75;;;2.50;1.00;;;;;;4939535;29;20062;-74
2021/03/21 02:56:07;;;;;;;8.25;4.35;;;2.60;1.00;;;;;;4943178;29;20489;-75
2021/03/21 02:58:41;;;;;;;9.57;3.92;;;2.60;1.00;;;;;;4941139;29;20065;-76
2021/03/21 03:01:13;;;;;;;6.93;3.83;;;2.60;1.00;;;;;;4939602;29;20085;-75
2021/03/21 03:03:45;;;;;;;10.50;4.07;;;2.50;1.00;;;;;;4939959;29;20055;-75
2021/03/21 03:06:15;;;;;;;6.15;4.00;;;2.50;1.00;;;;;;4946838;29;20051;-75
2021/03/21 03:08:47;;;;;;;7.30;4.22;;;2.50;1.00;;;;;;4940163;29;20238;-75
2021/03/21 03:11:16;;;;;;;7.13;3.80;;;2.50;1.00;;;;;;4932531;29;20043;-74
2021/03/21 03:13:48;;;;;;;7.47;4.00;;;2.50;1.00;;;;;;4942226;29;20060;-74
2021/03/21 03:16:22;;;;;;;6.95;4.05;;;2.50;1.00;;;;;;4940828;29;20048;-76
2021/03/21 03:18:58;;;;;;;6.20;3.75;;;2.50;1.00;;;;;;4942583;29;20426;-77
2021/03/21 03:21:33;;;;;;;5.82;3.70;;;2.50;1.00;;;;;;4932480;29;20056;-74
2021/03/21 03:24:06;;;;;;;7.05;3.65;;;2.50;1.00;;;;;;4939252;29;20062;-74
2021/03/21 03:26:42;;;;;;;6.93;3.78;;;2.50;1.00;;;;;;4941935;29;20795;-74
2021/03/21 03:29:28;;;;;;;6.10;3.70;;;2.50;1.00;;;;;;4940901;29;20143;-74
2021/03/21 03:31:57;;;;;;;7.95;4.00;;;2.50;1.00;;;;;;4932804;29;20062;-74
2021/03/21 03:34:27;;;;;;;6.68;3.75;;;2.50;1.00;;;;;;4946623;29;20043;-74
2021/03/21 03:36:54;;;;;;;5.63;3.45;;;2.50;1.00;;;;;;4940977;28;20048;-74
2021/03/21 03:39:22;;;;;;;4.85;3.78;;;2.50;1.00;;;;;;4942913;29;20063;-74
2021/03/21 03:41:57;;;;;;;6.43;3.55;;;2.50;1.00;;;;;;4932592;29;20051;-74
2021/03/21 03:44:31;;;;;;;6.93;4.35;;;2.50;1.00;;;;;;4942638;29;20055;-74
2021/03/21 03:47:04;;;;;;;8.07;4.00;;;2.40;1.00;;;;;;4943074;29;20039;-75
2021/03/21 03:49:42;;;;;;;6.97;3.65;;;2.50;1.00;;;;;;4939850;29;20055;-73
2021/03/21 03:52:27;;;;;;;9.48;3.70;;;2.50;1.00;;;;;;4943863;29;20055;-76
2021/03/21 03:54:57;;;;;;;;;;;2.40;1.00;;;;;;4938744;29;20051;-75
2021/03/21 03:57:28;;;;;;;8.00;3.92;;;2.50;1.00;;;;;;4936363;29;19922;-75
2021/03/21 04:00:13;;;;;;;7.15;3.67;;;2.50;1.00;;;;;;4936175;28;20067;-74
2021/03/21 04:02:49;;;;;;;5.72;3.38;;;2.50;1.00;;;;;;4940065;29;20082;-77
2021/03/21 04:05:23;;;;;;;5.35;3.42;;;2.60;1.00;;;;;;4940651;29;20568;-74
2021/03/21 04:07:59;;;;;;;6.83;3.63;;;2.50;1.00;;;;;;4940106;29;20126;-74
2021/03/21 04:10:33;;;;;;;4.97;3.40;;;2.50;1.00;;;;;;4936098;29;20051;-73
2021/03/21 04:13:08;;;;;;;6.25;3.60;;;2.50;1.00;;;;;;4943300;29;20064;-74
2021/03/21 04:15:39;;;;;;;6.40;3.30;;;2.50;1.00;;;;;;4942532;29;20055;-74
2021/03/21 04:18:10;;;;;;;5.72;3.30;;;2.60;1.00;;;;;;4946547;29;20057;-74
2021/03/21 04:20:42;;;;;;;6.50;3.88;;;2.60;1.00;;;;;;4933685;29;20060;-74
2021/03/21 04:23:13;;;;;;;5.05;3.03;;;2.50;1.00;;;;;;4945676;29;20062;-73
2021/03/21 04:25:44;;;;;;;6.95;3.53;;;2.60;1.00;;;;;;4943842;29;20398;-74
2021/03/21 04:28:17;;;;;;;8.00;3.67;;;2.60;1.00;;;;;;4944390;29;20548;-75
2021/03/21 04:30:48;;;;;;;8.90;3.83;;;2.60;1.00;;;;;;4938761;29;20047;-74
2021/03/21 04:33:19;;;;;;;10.02;3.97;;;2.60;1.00;;;;;;4942417;29;20043;-77
2021/03/21 04:35:49;;;;;;;6.13;3.13;;;2.60;1.00;;;;;;4944340;29;20054;-75
2021/03/21 04:38:21;;;;;;;5.07;3.05;;;2.60;1.00;;;;;;4946960;29;20051;-74
2021/03/21 04:40:49;;;;;;;5.57;3.78;;;2.60;1.00;;;;;;4937318;29;20062;-75
2021/03/21 04:43:22;;;;;;;9.98;3.15;;;2.60;1.00;;;;;;4942856;28;20427;-75
2021/03/21 04:45:53;;;;;;;7.18;2.85;;;2.60;1.00;;;;;;4942834;29;20517;-73
2021/03/21 04:48:23;;;;;;;6.18;3.50;;;2.50;1.00;;;;;;4941990;29;20584;-75
2021/03/21 04:51:01;;;;;;;6.65;3.08;;;2.60;1.00;;;;;;4940368;29;21374;-75
2021/03/21 04:53:38;;;;;;;6.05;2.95;;;2.50;1.00;;;;;;4943741;29;20070;-73
2021/03/21 04:56:12;;;;;;;6.10;3.05;;;2.50;1.00;;;;;;4942713;29;20498;-74
2021/03/21 04:58:43;;;;;;;4.60;3.35;;;2.50;1.00;;;;;;4946828;29;20200;-75
2021/03/21 05:01:15;;;;;;;5.38;3.30;;;2.50;1.00;;;;;;4939576;29;20062;-75
2021/03/21 05:03:47;;;;;;;5.97;3.42;;;2.50;1.00;;;;;;4941415;29;20414;-75
2021/03/21 05:06:19;;;;;;;8.05;3.30;;;2.50;1.00;;;;;;4945935;29;20051;-75
2021/03/21 05:08:51;;;;;;;4.80;3.00;;;2.50;1.00;;;;;;4943029;29;20054;-73
2021/03/21 05:11:20;;;;;;;4.60;3.00;;;2.50;1.00;;;;;;4937269;28;20056;-74
2021/03/21 05:13:55;;;;;;;5.15;3.13;;;2.60;1.00;;;;;;4941399;29;20047;-73
2021/03/21 05:16:26;;;;;;;5.22;3.17;;;2.50;1.00;;;;;;4942268;29;20055;-74
2021/03/21 05:19:05;;;;;;;8.18;3.53;;;2.50;1.00;;;;;;4942344;29;20549;-73
2021/03/21 05:21:40;;;;;;;6.35;3.17;;;2.50;1.00;;;;;;4934055;29;20051;-73
2021/03/21 05:24:14;;;;;;;5.63;3.15;;;2.60;1.00;;;;;;4944980;29;20065;-75
2021/03/21 05:26:44;;;;;;;7.05;3.42;;;2.60;1.00;;;;;;4943449;29;20048;-77
2021/03/21 05:29:44;;;;;;;4.80;3.17;;;2.60;1.00;;;;;;4937776;29;20061;-77
2021/03/21 05:32:13;;;;;;;5.97;2.78;;;2.60;1.00;;;;;;4934965;29;20059;-77
2021/03/21 05:34:42;;;;;;;4.40;2.88;;;2.60;1.00;;;;;;4951864;29;20059;-77
2021/03/21 05:37:21;;;;;;;5.07;3.50;;;2.70;1.00;;;;;;4946962;29;20713;-76
2021/03/21 05:39:57;;;;;;;6.85;3.33;;;2.70;1.00;;;;;;4944559;29;20055;-75
2021/03/21 05:42:51;;;;;;;6.18;3.63;;;2.60;1.00;;;;;;4942866;29;20057;-74
2021/03/21 05:46:09;;;;;;;5.38;3.47;;;2.60;1.00;;;;;;4942079;29;20413;-75
2021/03/21 05:49:06;;;;;;;8.75;4.03;;;2.50;1.00;;;;;;4938546;29;20474;-75
2021/03/21 05:52:22;;;;;;;6.57;3.30;;;2.60;1.00;;;;;;4935014;29;20055;-75
2021/03/21 05:55:03;;;;;;;;;;;2.60;1.00;;;;;;4926901;29;20048;-74
2021/03/21 05:58:05;;;;;;;6.30;2.85;;;2.60;1.00;;;;;;4904121;29;19926;-75
2021/03/21 06:00:57;;;;;;;5.28;3.05;;;2.70;1.00;;;;;;4934480;29;20074;-75
2021/03/21 06:03:58;;;;;;;5.50;2.95;;;2.70;1.00;;;;;;4937260;29;20098;-74
2021/03/21 06:07:10;;;;;;;6.05;3.15;;;2.80;1.00;;;;;;4941440;29;20379;-74
2021/03/21 06:10:02;;;;;;;4.32;2.72;;;2.90;1.00;;;;;;4938210;29;20109;-74
2021/03/21 06:12:47;;;;;;;6.13;2.75;;;2.90;1.00;;;;;;4934777;29;20051;-75
2021/03/21 06:15:46;;;;;;;7.13;3.10;;;2.90;1.00;;;;;;4940649;29;20051;-75
2021/03/21 06:18:41;;;;;;;7.13;3.10;;;2.90;1.00;;;;;;4921607;29;20760;-74
2021/03/21 06:21:33;;;;;;;4.93;2.70;;;2.90;1.00;;;;;;4935444;29;20047;-74
2021/03/21 06:24:32;;;;;;;5.05;2.47;;;2.90;1.00;;;;;;4944211;28;20060;-74
2021/03/21 06:27:10;;;;;;;4.70;2.58;;;3.00;1.00;;;;;;4940578;29;20047;-75
2021/03/21 06:29:55;;;;;;;4.85;2.80;;;3.00;1.00;;;;;;4937129;29;20139;-73
2021/03/21 06:32:58;;;;;;;5.18;3.63;;;3.00;1.00;;;;;;4940977;29;20069;-76
2021/03/21 06:35:55;;;;;;;4.38;2.97;;;3.00;1.00;;;;;;4941081;29;20111;-77
2021/03/21 06:39:00;;;;;;;4.68;2.72;;;3.00;1.00;;;;;;4937159;29;20585;-77
2021/03/21 06:41:45;;;;;;;4.97;2.57;;;3.00;1.00;;;;;;4934307;29;20046;-75
2021/03/21 06:44:35;;;;;;;6.35;3.25;;;3.10;1.00;;;;;;4938795;29;20291;-74
2021/03/21 06:47:38;;;;;;;6.20;3.13;;;3.00;1.00;;;;;;4941573;29;20048;-73
2021/03/21 06:50:31;;;;;;;5.82;2.90;;;3.10;1.00;;;;;;4937256;29;20139;-75
2021/03/21 06:53:08;;;;;;;6.80;2.80;;;3.10;1.00;;;;;;4943508;29;20057;-74
2021/03/21 06:55:38;;;;;;;6.68;2.78;;;3.00;1.00;;;;;;4941181;29;20063;-74
2021/03/21 06:58:47;;;;;;;7.28;3.05;;;3.10;1.00;;;;;;4943445;29;20043;-75
2021/03/21 07:01:53;;;;;;;5.82;2.70;;;3.10;1.00;;;;;;4934868;29;20074;-74
2021/03/21 07:04:59;;;;;;;5.10;2.50;;;3.20;1.00;;;;;;4943192;29;20047;-74
2021/03/21 07:07:53;;;;;;;;;;;3.30;1.00;;;;;;4942651;29;20047;-77
2021/03/21 07:11:16;;;;;;;5.53;2.90;;;3.30;1.00;;;;;;4902884;29;20047;-74
2021/03/21 07:14:17;;;;;;;5.97;3.00;;;3.40;1.00;;;;;;4942337;29;20126;-74
2021/03/21 07:17:11;;;;;;;4.47;2.95;;;3.40;1.00;;;;;;4941867;29;20051;-73
2021/03/21 07:20:16;;;;;;;7.27;3.70;;;3.40;1.00;;;;;;4941796;29;20054;-76
2021/03/21 07:23:18;;;;;;;6.95;3.83;;;3.30;1.00;;;;;;4947169;29;20294;-74
2021/03/21 07:26:16;;;;;;;6.13;3.40;;;3.40;1.00;;;;;;4938422;29;20047;-74
2021/03/21 07:29:17;;;;;;;6.88;3.42;;;3.40;1.00;;;;;;4942679;29;20545;-73
2021/03/21 07:31:58;;;;;;;7.65;4.43;;;3.40;1.00;;;;;;4934413;29;20544;-74
2021/03/21 07:34:57;;;;;;;4.68;3.22;;;3.50;1.00;;;;;;4943564;28;20056;-76
2021/03/21 07:37:30;;;;;;;3.72;2.72;;;3.50;1.00;;;;;;4943512;29;20062;-76
2021/03/21 07:40:16;;;;;;;4.53;2.60;;;3.60;1.00;;;;;;4941563;29;20055;-75
2021/03/21 07:43:00;;;;;;;3.65;2.35;;;3.40;1.00;;;;;;4943119;29;20059;-76
2021/03/21 07:45:37;;;;;;;4.70;2.65;;;3.50;1.00;;;;;;4945054;29;20498;-76
2021/03/21 07:48:17;;;;;;;4.03;2.53;;;3.50;1.00;;;;;;4944881;29;20051;-75
2021/03/21 07:50:55;;;;;;;4.55;2.70;;;3.40;1.00;;;;;;4940824;29;20051;-75
2021/03/21 07:53:28;;;;;;;6.50;2.88;;;3.40;1.00;;;;;;4946393;29;20512;-74
2021/03/21 07:56:03;;;;;;;3.83;2.83;;;3.40;1.00;;;;;;4944240;29;20059;-75
2021/03/21 07:58:32;;;;;;;;;;;3.50;1.00;;;;;;4947435;29;20058;-74
2021/03/21 08:00:59;;;;;;;7.68;3.25;;;3.60;1.00;;;;;;4938137;29;20021;-73
2021/03/21 08:03:39;;;;;;;4.13;2.38;;;3.70;1.00;;;;;;4944282;29;20063;-76
2021/03/21 08:06:15;;;;;;;6.93;2.58;;;3.70;1.00;;;;;;4948172;29;20062;-76
2021/03/21 08:08:47;;;;;;;4.85;2.30;;;3.60;1.00;;;;;;4943825;29;20123;-75
2021/03/21 08:11:19;;;;;;;4.85;2.60;;;3.70;1.00;;;;;;4936004;29;20051;-74
2021/03/21 08:13:56;;;;;;;3.78;2.60;;;3.60;1.00;;;;;;4944131;29;20051;-74
2021/03/21 08:16:34;;;;;;;3.72;2.70;;;3.70;1.00;;;;;;4943688;29;20043;-74
2021/03/21 08:19:01;;;;;;;3.50;2.40;;;3.80;1.00;;;;;;4945257;29;20099;-77
2021/03/21 08:21:31;;;;;;;4.18;2.67;;;3.80;1.00;;;;;;4934040;29;20537;-77
2021/03/21 08:24:02;;;;;;;5.07;2.42;;;3.80;1.00;;;;;;4941319;29;20055;-76
2021/03/21 08:26:31;;;;;;;5.20;2.80;;;3.90;1.00;;;;;;4949322;29;20051;-76
2021/03/21 08:29:02;;;;;;;4.32;2.60;;;4.10;1.00;;;;;;4947444;29;20064;-74
2021/03/21 08:31:31;;;;;;;3.35;2.60;;;4.30;1.00;;;;;;4931373;29;20047;-75
2021/03/21 08:34:19;;;;;;;4.75;2.85;;;4.40;1.00;;;;;;4942081;29;20051;-74
2021/03/21 08:36:46;;;;;;;7.20;3.03;;;4.40;1.00;;;;;;4942081;29;20047;-74
2021/03/21 08:39:18;;;;;;;4.53;2.58;;;4.50;1.00;;;;;;4942084;29;20071;-75
2021/03/21 08:41:49;;;;;;;4.32;3.20;;;4.40;1.00;;;;;;4938532;29;20053;-74
2021/03/21 08:44:32;;;;;;;8.50;3.63;;;4.30;1.00;;;;;;4942696;29;20048;-75
2021/03/21 08:46:59;;;;;;;6.50;3.35;;;4.50;1.00;;;;;;4945498;28;20494;-75
2021/03/21 08:49:33;;;;;;;6.00;3.10;;;4.60;1.00;;;;;;4948938;29;20075;-77
2021/03/21 08:52:02;;;;;;;6.55;3.70;;;4.70;1.00;;;;;;4941181;29;20075;-74
2021/03/21 08:54:34;;;;;;;7.13;3.63;;;4.60;1.00;;;;;;4941104;28;20048;-79
2021/03/21 08:57:05;;;;;;;6.38;2.97;;;4.70;1.00;;;;;;4942125;29;20047;-74
2021/03/21 08:59:36;;;;;;;4.82;3.20;;;4.70;1.00;;;;;;4942369;29;20058;-78
2021/03/21 09:02:10;;;;;;;5.47;3.17;;;4.80;1.00;;;;;;4942142;29;20063;-76
2021/03/21 09:04:40;;;;;;;5.45;3.20;;;4.80;1.00;;;;;;4943999;29;20059;-77
2021/03/21 09:07:17;;;;;;;7.00;3.72;;;4.60;1.00;;;;;;4938893;29;20044;-74
2021/03/21 09:09:45;;;;;;;5.82;3.30;;;4.70;1.00;;;;;;4938514;29;20057;-75
2021/03/21 09:12:31;;;;;;;6.22;3.90;;;4.60;1.00;;;;;;4940076;29;20425;-74
2021/03/21 09:15:22;;;;;;;6.03;3.92;;;4.50;1.00;;;;;;4942252;29;20047;-73
2021/03/21 09:18:12;;;;;;;7.32;4.10;;;4.70;1.00;;;;;;4942944;29;20043;-75
2021/03/21 09:20:42;;;;;;;5.82;3.75;;;4.70;1.00;;;;;;4940282;29;20555;-77
2021/03/21 09:23:31;;;;;;;6.03;3.92;;;4.60;1.00;;;;;;4941236;29;20051;-75
2021/03/21 09:25:59;;;;;;;10.82;4.60;;;4.80;1.00;;;;;;4942102;29;20052;-75
2021/03/21 09:28:32;;;;;;;6.70;4.07;;;4.90;1.00;;;;;;4949839;29;20051;-75
2021/03/21 09:31:02;;;;;;;14.50;6.38;;;4.90;1.00;;;;;;4938668;29;20051;-75
2021/03/21 09:33:35;;;;;;;6.60;4.20;;;4.80;1.00;;;;;;4942890;29;20047;-76
2021/03/21 09:36:06;;;;;;;7.75;3.95;;;4.80;1.00;;;;;;4941388;29;20126;-74
2021/03/21 09:38:44;;;;;;;10.90;4.75;;;4.70;1.00;;;;;;4942279;29;20047;-75
2021/03/21 09:41:14;;;;;;;7.93;4.28;;;4.60;1.00;;;;;;4934554;29;20074;-74
2021/03/21 09:43:42;;;;;;;7.68;4.50;;;4.60;1.00;;;;;;4940339;29;20047;-75
2021/03/21 09:46:20;;;;;;;6.47;4.32;;;4.70;1.00;;;;;;4943999;29;20463;-75
2021/03/21 09:49:10;;;;;;;7.38;4.03;;;4.80;1.00;;;;;;4945472;29;20043;-75
2021/03/21 09:51:49;;;;;;;7.45;4.78;;;4.90;1.00;;;;;;4934060;29;20058;-75
2021/03/21 09:54:28;;;;;;;8.55;3.90;;;4.90;1.00;;;;;;4941987;29;20051;-76
2021/03/21 09:57:08;;;;;;;8.02;4.40;;;4.90;1.00;;;;;;4944830;29;20126;-74
2021/03/21 09:59:47;;;;;;;7.57;4.30;;;4.90;1.00;;;;;;4941127;29;20060;-76
2021/03/21 10:02:24;;;;;;;7.47;4.72;;;5.00;1.00;;;;;;4943716;29;20074;-76
2021/03/21 10:04:58;;;;;;;7.35;4.10;;;5.10;1.00;;;;;;4944367;29;20054;-74
2021/03/21 10:07:31;;;;;;;5.60;4.10;;;5.40;1.00;;;;;;4945471;29;20058;-74
2021/03/21 10:10:01;;;;;;;6.32;4.38;;;5.50;1.00;;;;;;4932709;29;20060;-77
2021/03/21 10:12:28;;;;;;;7.72;4.78;;;5.50;1.00;;;;;;4938164;29;20051;-77
2021/03/21 10:15:08;;;;;;;7.60;4.68;;;5.40;1.00;;;;;;4942938;29;20529;-76
2021/03/21 10:17:43;;;;;;;11.38;5.03;;;5.40;1.00;;;;;;4947074;29;20070;-78
2021/03/21 10:20:17;;;;;;;7.00;4.18;;;5.60;1.00;;;;;;4936274;29;20052;-78
2021/03/21 10:22:57;;;;;;;6.88;4.32;;;5.00;1.00;;;;;;4941558;29;20059;-76
2021/03/21 10:26:03;;;;;;;7.45;4.70;;;5.30;1.00;;;;;;4946549;29;20067;-76
2021/03/21 10:28:43;;;;;;;8.23;4.80;;;5.20;1.00;;;;;;4947099;29;20058;-76
2021/03/21 10:31:38;;;;;;;7.57;4.70;;;4.90;1.00;;;;;;4933779;29;20051;-78
2021/03/21 10:34:37;;;;;;;8.85;4.32;;;5.00;1.00;;;;;;4944953;29;20160;-76
2021/03/21 10:37:05;;;;;;;7.38;5.05;;;4.80;1.00;;;;;;4936194;29;20047;-76
2021/03/21 10:39:56;;;;;;;7.25;4.95;;;5.00;1.00;;;;;;4944702;29;20043;-76
2021/03/21 10:42:48;;;;;;;7.30;4.55;;;5.00;1.00;;;;;;4936237;29;20498;-74
2021/03/21 10:45:19;;;;;;;11.90;5.45;;;5.30;1.00;;;;;;4941401;29;20051;-74
2021/03/21 10:47:50;;;;;;;13.50;7.13;;;5.70;1.00;;;;;;4938982;29;20058;-74
2021/03/21 10:50:54;;;;;;;8.63;5.72;;;5.40;1.00;;;;;;4934885;29;20054;-74
2021/03/21 10:53:25;;;;;;;9.02;5.03;;;5.80;1.00;;;;;;4939101;29;20070;-73
2021/03/21 10:56:04;;;;;;;8.07;5.68;;;5.30;1.00;;;;;;4942672;29;20054;-74
2021/03/21 10:58:40;;;;;;;9.80;6.00;;;5.50;1.00;;;;;;4939127;29;20050;-74
2021/03/21 11:01:30;;;;;;;10.02;6.50;;;5.70;1.00;;;;;;4933795;29;20059;-73
2021/03/21 11:04:30;;;;;;;11.25;5.70;;;5.70;1.00;;;;;;4940998;29;20043;-74
2021/03/21 11:07:01;;;;;;;8.10;5.22;;;5.60;1.00;;;;;;4941164;29;20181;-75
2021/03/21 11:09:32;;;;;;;8.98;4.80;;;5.60;1.00;;;;;;4940570;28;20055;-74
2021/03/21 11:12:02;;;;;;;8.43;5.07;;;5.70;1.00;;;;;;4936960;29;20425;-74
2021/03/21 11:14:33;;;;;;;9.20;5.05;;;5.40;1.00;;;;;;4938565;29;20407;-75
2021/03/21 11:17:03;;;;;;;10.20;4.75;;;5.20;1.00;;;;;;4939767;29;20082;-73
2021/03/21 11:19:46;;;;;;;10.48;4.90;;;5.40;1.00;;;;;;4941024;29;20051;-74
2021/03/21 11:22:23;;;;;;;7.30;5.40;;;5.40;1.00;;;;;;4939888;29;20047;-74
2021/03/21 11:24:50;;;;;;;11.18;5.35;;;5.40;1.00;;;;;;4942076;29;20062;-75
2021/03/21 11:27:26;;;;;;;8.88;4.88;;;5.50;1.00;;;;;;4942788;29;20050;-74
2021/03/21 11:29:54;;;;;;;8.77;5.13;;;5.90;1.00;;;;;;4939495;29;20450;-75
2021/03/21 11:32:23;;;;;;;8.40;5.07;;;5.50;1.00;;;;;;4940121;29;20047;-75
2021/03/21 11:35:00;;;;;;;7.57;5.28;;;5.60;1.00;;;;;;4945453;29;20134;-75
2021/03/21 11:37:30;;;;;;;9.32;4.95;;;5.60;1.00;;;;;;4942562;29;20500;-76
2021/03/21 11:40:00;;;;;;;9.27;5.72;;;5.50;1.00;;;;;;4943149;29;20064;-74
2021/03/21 11:42:32;;;;;;;10.38;5.28;;;5.80;1.00;;;;;;4943294;29;20059;-75
2021/03/21 11:45:22;;;;;;;8.13;4.10;;;5.60;1.00;;;;;;4942523;29;20051;-75
2021/03/21 11:47:50;;;;;;;6.80;4.80;;;5.30;1.00;;;;;;4942635;29;20138;-75
2021/03/21 11:50:20;;;;;;;5.65;3.90;;;5.50;1.00;;;;;;4941226;29;20201;-74
2021/03/21 11:52:48;;;;;;;9.50;4.47;;;5.00;1.00;;;;;;4934404;29;20422;-74
2021/03/21 11:55:18;;;;;;;8.13;5.65;;;5.10;1.00;;;;;;4938775;29;20521;-75
2021/03/21 11:58:13;;;;;;;8.02;5.50;;;5.00;1.00;;;;;;4940709;29;20869;-74
2021/03/21 12:00:42;;;;;;;;;;;5.20;1.00;;;;;;4919423;29;20055;-75
2021/03/21 12:03:13;;;;;;;6.72;4.55;;;5.40;1.00;;;;;;4933490;29;19923;-75
2021/03/21 12:05:42;;;;;;;8.65;5.05;;;5.60;1.00;;;;;;4942705;29;20094;-75
2021/03/21 12:08:24;;;;;;;8.93;5.07;;;5.60;1.00;;;;;;4941364;29;21237;-75
2021/03/21 12:10:56;;;;;;;7.00;4.57;;;5.50;1.00;;;;;;4938189;29;20142;-75
2021/03/21 12:13:25;;;;;;;8.05;5.40;;;5.60;1.00;;;;;;4941151;29;20058;-76
2021/03/21 12:15:53;;;;;;;7.38;4.80;;;5.90;1.00;;;;;;4942231;29;20054;-75
2021/03/21 12:18:22;;;;;;;8.93;5.00;;;5.90;1.00;;;;;;4939664;29;20672;-76
2021/03/21 12:20:50;;;;;;;7.93;5.35;;;6.00;1.00;;;;;;4944699;28;20049;-76
2021/03/21 12:23:40;;;;;;;6.22;4.32;;;6.10;1.00;;;;;;4941073;29;20140;-76
2021/03/21 12:26:18;;;;;;;8.07;4.70;;;6.20;1.00;;;;;;4946310;29;20126;-75
2021/03/21 12:28:57;;;;;;;7.07;4.53;;;6.20;1.00;;;;;;4946967;29;20058;-76
2021/03/21 12:31:33;;;;;;;8.23;3.95;;;6.20;1.00;;;;;;4938606;29;20054;-75
2021/03/21 12:34:23;;;;;;;4.53;3.47;;;6.00;1.00;;;;;;4946020;29;20048;-76
2021/03/21 12:37:01;;;;;;;6.88;4.75;;;6.20;1.00;;;;;;4945216;29;20043;-75
2021/03/21 12:39:31;;;;;;;7.55;5.10;;;6.40;1.00;;;;;;4942838;29;20557;-77
2021/03/21 12:41:59;;;;;;;7.43;4.72;;;5.70;1.00;;;;;;4937869;29;20059;-77
2021/03/21 12:44:28;;;;;;;14.38;5.13;;;6.20;1.00;;;;;;4947373;29;20410;-74
2021/03/21 12:46:59;;;;;;;7.72;4.80;;;6.00;1.00;;;;;;4942551;29;20537;-76
2021/03/21 12:49:47;;;;;;;8.48;5.53;;;5.80;1.00;;;;;;4948072;29;20055;-75
2021/03/21 12:52:24;;;;;;;9.02;5.63;;;5.70;1.00;;;;;;4935638;29;20050;-75
2021/03/21 12:54:53;;;;;;;10.27;6.07;;;5.80;1.00;;;;;;4943702;29;20387;-75
2021/03/21 12:57:20;;;;;;;9.15;6.10;;;5.60;1.00;;;;;;4945016;29;20069;-76
2021/03/21 12:59:49;;;;;;;8.82;6.38;;;5.90;1.00;;;;;;4942931;29;20067;-75
2021/03/21 13:02:24;;;;;;;9.82;6.95;;;6.30;1.00;;;;;;4937238;29;20056;-78
2021/03/21 13:04:52;;;;;;;11.98;6.50;;;5.90;1.00;;;;;;4939012;29;20083;-77
2021/03/21 13:07:20;;;;;;;9.27;5.65;;;5.80;1.00;;;;;;4936139;29;20502;-77
2021/03/21 13:09:47;;;;;;;11.93;6.82;;;5.70;1.00;;;;;;4938921;29;20079;-77
2021/03/21 13:12:14;;;;;;;9.68;5.95;;;5.90;1.00;;;;;;4936942;29;20546;-74
2021/03/21 13:14:41;;;;;;;8.77;5.65;;;5.90;1.00;;;;;;4943461;29;20051;-75
2021/03/21 13:17:08;;;;;;;8.98;5.55;;;5.80;1.00;;;;;;4941916;29;20477;-75
2021/03/21 13:19:36;;;;;;;12.10;6.40;;;6.00;1.00;;;;;;4938306;29;20062;-75
2021/03/21 13:22:04;;;;;;;9.80;6.60;;;5.80;1.00;;;;;;4941233;29;20437;-76
2021/03/21 13:24:31;;;;;;;9.95;5.95;;;5.90;1.00;;;;;;4943147;29;20051;-74
2021/03/21 13:26:59;;;;;;;7.57;5.43;;;6.00;1.00;;;;;;4934543;29;20051;-75
2021/03/21 13:29:26;;;;;;;8.98;4.95;;;5.90;1.00;;;;;;4941119;29;20071;-75
2021/03/21 13:31:53;;;;;;;9.50;5.78;;;5.80;1.00;;;;;;4937703;29;20050;-75
2021/03/21 13:34:21;;;;;;;8.85;5.95;;;5.70;1.00;;;;;;4945020;29;20055;-74
2021/03/21 13:36:49;;;;;;;8.57;6.13;;;6.10;1.00;;;;;;4939784;29;20502;-75
2021/03/21 13:39:16;;;;;;;9.85;6.43;;;5.70;1.00;;;;;;4936891;29;20501;-74
2021/03/21 13:41:43;;;;;;;11.07;6.45;;;5.60;1.00;;;;;;4933378;29;20063;-73
2021/03/21 13:44:10;;;;;;;8.38;5.90;;;5.70;1.00;;;;;;4938918;28;20052;-74
2021/03/21 13:46:36;;;;;;;9.38;6.60;;;5.70;1.00;;;;;;4941984;29;20422;-74
2021/03/21 13:49:05;;;;;;;9.48;6.15;;;5.80;1.00;;;;;;4936973;29;20167;-74
2021/03/21 13:51:32;;;;;;;9.63;6.38;;;5.90;1.00;;;;;;4938165;29;20078;-75
2021/03/21 13:54:00;;;;;;;10.77;6.95;;;6.00;1.00;;;;;;4942994;29;20146;-74